Time;durP1;ratioP1;P1;durP2;ratioP2;P2;SDS_P1;SDS_P2;PMS_P1;PMS_P2;Temp;Humidity;BMP_temperature;BMP_pressure;BME280_temperature;BME280_humidity;BME280_pressure;Samples;Min_cycle;Max_cycle;Signal;HPM_P1;HPM_P2
2023/03/13 00:01:33;;;;;;;54.95;3.50;;;;;;;22.28;52.70;98670.88;7306644;19;128911;-42
2023/03/13 00:03:59;;;;;;;70.88;4.30;;;;;;;22.15;52.43;98654.84;7310452;19;128995;-42
2023/03/13 00:06:31;;;;;;;73.37;4.23;;;;;;;22.23;53.44;98675.78;7310953;19;129686;-42
2023/03/13 00:08:56;;;;;;;51.58;3.25;;;;;;;22.20;52.19;98669.06;7311594;19;130220;-38
2023/03/13 00:11:22;;;;;;;51.00;3.67;;;;;;;22.07;52.53;98657.47;7310215;19;129381;-42
2023/03/13 00:13:47;;;;;;;45.60;2.85;;;;;;;22.19;53.03;98671.84;7310882;19;129589;-38
2023/03/13 00:16:15;;;;;;;74.05;3.83;;;;;;;22.16;52.31;98661.72;7307926;19;129011;-42
2023/03/13 00:18:44;;;;;;;41.42;2.78;;;;;;;22.15;52.72;98667.94;7311219;19;129342;-37
2023/03/13 00:21:10;;;;;;;49.45;3.17;;;;;;;22.13;52.70;98667.28;7308883;19;129146;-40
2023/03/13 00:23:36;;;;;;;49.63;2.93;;;;;;;22.12;53.21;98663.03;7311453;19;129672;-35
2023/03/13 00:26:05;;;;;;;65.28;3.60;;;;;;;22.09;53.49;98661.56;7308995;19;130046;-43
2023/03/13 00:28:32;;;;;;;44.47;2.88;;;;;;;22.03;53.36;98666.66;7311716;19;129330;-43
2023/03/13 00:31:00;;;;;;;;;;;;;;;21.93;54.16;98645.88;7308723;19;128931;-41
2023/03/13 00:33:25;;;;;;;112.38;6.63;;;;;;;21.98;53.50;98668.94;7308370;19;130857;-43
2023/03/13 00:35:51;;;;;;;68.45;3.83;;;;;;;21.95;53.42;98665.66;7307913;19;129650;-42
2023/03/13 00:38:16;;;;;;;56.95;3.42;;;;;;;21.95;53.71;98654.38;7310703;19;130359;-42
2023/03/13 00:40:41;;;;;;;22.92;1.92;;;;;;;21.85;54.03;98641.47;7309352;19;128892;-42
2023/03/13 00:43:07;;;;;;;49.63;3.03;;;;;;;21.86;54.25;98650.97;7307350;19;129666;-43
2023/03/13 00:45:32;;;;;;;76.95;4.45;;;;;;;21.95;54.27;98665.66;7307118;19;129537;-38
2023/03/13 00:47:57;;;;;;;60.20;3.67;;;;;;;21.96;54.23;98669.09;7310246;19;131156;-39
2023/03/13 00:50:22;;;;;;;52.33;3.40;;;;;;;21.96;54.66;98667.28;7309129;19;128889;-41
2023/03/13 00:52:48;;;;;;;61.83;3.63;;;;;;;21.97;53.79;98668.09;7308830;19;129171;-43
2023/03/13 00:55:13;;;;;;;102.25;5.70;;;;;;;21.93;54.23;98659.75;7307693;19;129049;-43
2023/03/13 00:57:39;;;;;;;42.43;2.60;;;;;;;21.98;53.62;98661.91;7309979;19;129526;-43
2023/03/13 01:00:05;;;;;;;24.55;2.05;;;;;;;21.95;53.98;98665.66;7308693;19;129079;-43
2023/03/13 01:02:30;;;;;;;67.63;3.63;;;;;;;21.92;54.07;98658.13;7307281;19;128971;-44
2023/03/13 01:04:56;;;;;;;58.60;3.53;;;;;;;21.93;53.25;98667.63;7308505;19;129913;-43
2023/03/13 01:07:21;;;;;;;64.03;4.05;;;;;;;21.93;53.29;98664.19;7308063;19;129449;-42
2023/03/13 01:09:46;;;;;;;42.13;2.45;;;;;;;21.92;53.84;98658.13;7308132;19;128911;-42
2023/03/13 01:12:12;;;;;;;61.08;3.33;;;;;;;21.89;53.40;98644.56;7306086;19;129684;-39
2023/03/13 01:14:37;;;;;;;46.00;2.72;;;;;;;21.87;53.85;98641.28;7315550;19;129255;-39
2023/03/13 01:17:03;;;;;;;39.45;2.63;;;;;;;21.88;53.58;98646.34;7312352;19;129265;-41
2023/03/13 01:19:28;;;;;;;80.53;4.75;;;;;;;21.86;54.26;98637.88;7315518;19;130215;-41
2023/03/13 01:21:53;;;;;;;62.70;3.55;;;;;;;21.86;53.91;98639.66;7314752;19;128960;-38
2023/03/13 01:24:19;;;;;;;56.47;3.40;;;;;;;21.84;53.62;98637.22;7316343;19;129513;-42
2023/03/13 01:26:44;;;;;;;45.47;2.77;;;;;;;21.83;54.42;98637.38;7315013;19;129365;-42
2023/03/13 01:29:10;;;;;;;83.18;4.60;;;;;;;21.82;54.45;98639.16;7315022;19;129156;-40
2023/03/13 01:31:36;;;;;;;57.67;3.75;;;;;;;21.78;54.55;98627.38;7313294;19;129186;-44
2023/03/13 01:34:04;;;;;;;50.87;2.97;;;;;;;21.77;54.35;98636.22;7316108;19;129004;-40
2023/03/13 01:36:29;;;;;;;70.10;4.00;;;;;;;21.78;54.11;98637.84;7312820;19;129577;-39
2023/03/13 01:38:57;;;;;;;56.97;3.30;;;;;;;21.65;54.09;98605.31;7315172;19;129013;-38
2023/03/13 01:41:25;;;;;;;85.97;4.90;;;;;;;21.74;53.91;98615.59;7311850;19;129025;-39
2023/03/13 01:43:51;;;;;;;39.92;2.47;;;;;;;21.73;55.05;98618.38;7315536;19;130959;-43
2023/03/13 01:46:19;;;;;;;65.95;3.92;;;;;;;21.74;54.72;98623.44;7314995;19;129638;-41
2023/03/13 01:48:47;;;;;;;57.08;3.47;;;;;;;21.75;54.62;98624.28;7314037;19;129090;-39
2023/03/13 01:51:21;;;;;;;58.80;3.33;;;;;;;21.66;55.80;98607.75;7313540;19;129022;-42
2023/03/13 01:53:50;;;;;;;75.03;4.30;;;;;;;21.73;54.86;98613.16;7313805;19;129117;-44
2023/03/13 01:56:29;;;;;;;47.33;2.85;;;;;;;21.64;54.65;98598.44;7313981;19;129723;-37
2023/03/13 01:58:57;;;;;;;50.92;2.95;;;;;;;21.73;54.58;98613.16;7314787;19;129274;-38
2023/03/13 02:01:23;;;;;;;46.90;2.78;;;;;;;21.60;55.13;98592.69;7313048;19;130006;-42
2023/03/13 02:03:49;;;;;;;74.82;4.13;;;;;;;21.70;54.47;98611.66;7315248;19;129356;-43
2023/03/13 02:06:16;;;;;;;41.85;2.63;;;;;;;21.70;54.39;98609.03;7315343;19;129194;-41
2023/03/13 02:08:55;;;;;;;35.70;2.13;;;;;;;21.60;54.77;98582.25;7314624;19;128953;-40
2023/03/13 02:11:27;;;;;;;65.05;4.00;;;;;;;21.69;55.15;98607.44;7312437;19;130797;-42
2023/03/13 02:13:54;;;;;;;52.50;3.13;;;;;;;21.66;55.05;98597.28;7315789;19;129360;-40
2023/03/13 02:16:20;;;;;;;123.70;6.90;;;;;;;21.65;54.87;98584.38;7312970;19;129354;-40
2023/03/13 02:18:46;;;;;;;42.03;2.30;;;;;;;21.64;54.56;98583.56;7313938;19;129636;-37
2023/03/13 02:21:42;;;;;;;63.63;3.67;;;;;;;21.63;55.31;98581.94;7311955;19;129542;-43
2023/03/13 02:24:23;;;;;;;51.55;2.97;;;;;;;21.62;55.45;98571.59;7312018;19;130177;-39
2023/03/13 02:26:48;;;;;;;38.25;2.33;;;;;;;21.62;54.64;98579.44;7313544;19;129151;-42
2023/03/13 02:29:17;;;;;;;46.42;3.17;;;;;;;21.61;54.74;98578.66;7312679;19;129183;-43
2023/03/13 02:31:46;;;;;;;68.47;3.95;;;;;;;21.63;54.61;98571.47;7311245;19;129257;-42
2023/03/13 02:34:17;;;;;;;47.35;2.80;;;;;;;21.60;55.10;98576.22;7312839;19;130034;-42
2023/03/13 02:36:44;;;;;;;45.40;2.70;;;;;;;21.61;54.47;98572.59;7312193;19;131771;-39
2023/03/13 02:39:12;;;;;;;55.05;3.28;;;;;;;21.59;54.50;98575.38;7313343;19;129061;-39
2023/03/13 02:41:39;;;;;;;59.47;3.20;;;;;;;21.61;54.46;98576.03;7311297;19;129048;-42
2023/03/13 02:44:05;;;;;;;;;;;;;;;21.58;54.78;98568.53;7314741;19;129339;-39
2023/03/13 02:46:43;;;;;;;56.83;3.40;;;;;;;21.59;54.71;98575.38;7312102;19;129993;-39
2023/03/13 02:49:34;;;;;;;36.40;2.22;;;;;;;21.58;55.48;98579.00;7313043;19;128879;-41
2023/03/13 02:52:10;;;;;;;62.55;3.72;;;;;;;21.57;55.26;98564.25;7310667;19;129037;-44
2023/03/13 02:54:38;;;;;;;52.35;2.92;;;;;;;21.59;54.76;98571.94;7313036;19;129522;-41
2023/03/13 02:57:04;;;;;;;39.95;2.78;;;;;;;21.48;54.48;98560.03;7310050;19;129383;-41
2023/03/13 02:59:29;;;;;;;53.60;2.90;;;;;;;21.56;54.72;98573.09;7311909;19;129144;-40
2023/03/13 03:01:55;;;;;;;40.92;2.47;;;;;;;21.52;54.53;98569.16;7311793;19;129151;-42
2023/03/13 03:04:22;;;;;;;42.65;2.67;;;;;;;21.57;54.56;98571.28;7312542;19;129197;-41
2023/03/13 03:06:48;;;;;;;68.75;3.85;;;;;;;21.54;54.35;98577.66;7312166;19;129151;-43
2023/03/13 03:09:14;;;;;;;73.60;4.13;;;;;;;21.55;54.79;98576.69;7312342;19;129113;-38
2023/03/13 03:11:39;;;;;;;46.22;2.75;;;;;;;21.44;55.31;98556.09;7311226;19;130496;-42
2023/03/13 03:14:05;;;;;;;50.28;3.03;;;;;;;21.54;54.62;98579.47;7312555;19;129878;-43
2023/03/13 03:16:30;;;;;;;63.40;3.40;;;;;;;21.52;55.60;98570.94;7310224;19;129111;-43
2023/03/13 03:18:56;;;;;;;59.37;3.53;;;;;;;21.55;55.07;98573.28;7312024;19;129042;-42
2023/03/13 03:21:22;;;;;;;60.05;3.45;;;;;;;21.52;55.12;98560.50;7311366;19;129448;-42
2023/03/13 03:23:48;;;;;;;68.32;3.90;;;;;;;21.53;55.07;98556.91;7312223;19;129308;-41
2023/03/13 03:26:14;;;;;;;78.50;4.17;;;;;;;21.53;55.26;98549.91;7311437;19;129197;-42
2023/03/13 03:28:39;;;;;;;38.40;2.15;;;;;;;21.52;54.99;98553.47;7312546;19;129420;-42
2023/03/13 03:31:08;;;;;;;38.40;2.20;;;;;;;21.50;55.15;98544.19;7310597;19;129227;-38
2023/03/13 03:33:34;;;;;;;42.00;2.40;;;;;;;21.52;55.32;98540.41;7312565;19;129391;-42
2023/03/13 03:36:06;;;;;;;42.63;2.47;;;;;;;21.50;55.36;98531.91;7308574;19;129218;-40
2023/03/13 03:38:31;;;;;;;86.25;4.75;;;;;;;21.49;54.64;98526.84;7311543;19;128795;-41
2023/03/13 03:40:57;;;;;;;49.78;2.67;;;;;;;21.48;54.62;98525.22;7312084;19;129356;-41
2023/03/13 03:43:23;;;;;;;57.47;3.45;;;;;;;21.47;54.82;98523.59;7311837;19;129036;-40
2023/03/13 03:45:48;;;;;;;78.50;4.20;;;;;;;21.45;54.87;98505.41;7311665;19;130944;-44
2023/03/13 03:48:13;;;;;;;58.03;3.23;;;;;;;21.43;55.17;98512.63;7311588;19;129697;-42
2023/03/13 03:50:39;;;;;;;88.72;5.05;;;;;;;21.46;55.09;98501.84;7308268;19;129613;-44
2023/03/13 03:53:04;;;;;;;46.67;2.67;;;;;;;21.45;54.86;98500.19;7308255;19;129740;-41
2023/03/13 03:55:29;;;;;;;60.58;3.17;;;;;;;21.44;54.85;98498.56;7310683;19;129272;-40
2023/03/13 03:57:55;;;;;;;50.03;2.95;;;;;;;21.45;55.75;98499.41;7311809;19;129445;-41
2023/03/13 04:00:20;;;;;;;51.33;2.95;;;;;;;21.38;55.20;98473.09;7310268;19;129226;-44
2023/03/13 04:02:46;;;;;;;46.08;2.75;;;;;;;21.48;54.81;98489.44;7307901;19;129928;-42
2023/03/13 04:05:12;;;;;;;96.28;5.22;;;;;;;21.44;55.25;98477.66;7310341;19;130257;-41
2023/03/13 04:07:37;;;;;;;38.37;2.33;;;;;;;21.44;54.93;98475.03;7312169;19;128984;-41
2023/03/13 04:10:04;;;;;;;43.05;2.45;;;;;;;21.43;55.51;98476.03;7310540;19;129534;-39
2023/03/13 04:12:29;;;;;;;46.30;2.90;;;;;;;21.44;55.06;98469.81;7309420;19;129646;-39
2023/03/13 04:14:54;;;;;;;74.22;4.05;;;;;;;21.43;55.59;98467.38;7310104;19;129628;-42
2023/03/13 04:17:20;;;;;;;40.10;2.38;;;;;;;21.32;55.15;98436.34;7308856;19;129772;-43
2023/03/13 04:19:45;;;;;;;45.53;2.65;;;;;;;21.42;55.49;98457.91;7310603;19;130404;-42
2023/03/13 04:22:10;;;;;;;33.95;1.92;;;;;;;21.44;55.30;98458.53;7308800;19;131015;-40
2023/03/13 04:24:36;;;;;;;73.43;3.70;;;;;;;21.44;55.40;98459.34;7309789;19;129666;-37
2023/03/13 04:27:02;;;;;;;67.18;3.67;;;;;;;21.43;54.98;98454.28;7310218;19;129320;-45
2023/03/13 04:29:28;;;;;;;60.13;3.47;;;;;;;21.42;55.32;98442.22;7310327;19;129617;-41
2023/03/13 04:31:53;;;;;;;61.42;3.33;;;;;;;21.40;55.53;98439.72;7309243;19;129230;-41
2023/03/13 04:34:19;;;;;;;75.32;4.28;;;;;;;21.29;56.78;98423.56;7311673;19;129676;-43
2023/03/13 04:36:44;;;;;;;14.60;1.55;;;;;;;21.42;56.71;98432.53;7309682;19;129115;-42
2023/03/13 04:39:09;;;;;;;67.57;3.93;;;;;;;21.41;56.10;98414.41;7309457;19;129579;-43
2023/03/13 04:41:35;;;;;;;74.47;3.80;;;;;;;21.88;54.57;98429.16;7310318;19;129478;-41
2023/03/13 04:44:00;;;;;;;37.00;2.23;;;;;;;22.29;53.29;98394.94;7311602;19;129709;-41
2023/03/13 04:46:25;;;;;;;48.45;3.03;;;;;;;22.77;52.04;98400.69;7307410;19;128975;-43
2023/03/13 04:48:51;;;;;;;44.83;2.47;;;;;;;23.19;50.39;98402.78;7309317;19;129022;-42
2023/03/13 04:51:16;;;;;;;85.53;4.53;;;;;;;23.42;49.72;98389.63;7307330;19;130555;-41
2023/03/13 04:53:41;;;;;;;46.67;2.80;;;;;;;23.55;49.86;98385.38;7306917;19;129179;-42
2023/03/13 04:56:07;;;;;;;39.65;2.25;;;;;;;23.70;49.27;98393.25;7307084;19;129675;-43
2023/03/13 04:58:32;;;;;;;41.20;2.35;;;;;;;23.82;49.07;98387.34;7308773;19;129348;-40
2023/03/13 05:00:58;;;;;;;47.97;2.78;;;;;;;23.97;48.30;98385.53;7308807;19;131075;-41
2023/03/13 05:03:23;;;;;;;67.35;3.92;;;;;;;24.00;48.68;98377.31;7306984;19;129207;-43
2023/03/13 05:05:49;;;;;;;42.43;2.47;;;;;;;24.00;48.55;98382.56;7306833;19;130065;-42
2023/03/13 05:08:14;;;;;;;78.23;4.30;;;;;;;24.14;47.63;98373.03;7304769;19;128931;-42
2023/03/13 05:10:42;;;;;;;71.27;3.97;;;;;;;24.11;48.47;98360.25;7308005;19;129876;-38
2023/03/13 05:13:08;;;;;;;40.35;2.28;;;;;;;24.27;47.48;98360.84;7304732;19;129688;-43
2023/03/13 05:15:33;;;;;;;36.10;2.17;;;;;;;24.20;47.83;98335.50;7308452;19;129003;-38
2023/03/13 05:17:58;;;;;;;63.30;3.37;;;;;;;24.33;47.83;98354.00;7306567;19;130678;-43
2023/03/13 05:20:24;;;;;;;44.63;2.57;;;;;;;24.37;47.48;98348.22;7306745;19;129971;-41
2023/03/13 05:22:49;;;;;;;58.40;3.70;;;;;;;24.40;47.28;98334.69;7306884;19;129307;-40
2023/03/13 05:25:15;;;;;;;67.03;3.85;;;;;;;24.46;47.26;98338.41;7309257;19;129651;-42
2023/03/13 05:27:40;;;;;;;89.47;4.47;;;;;;;24.51;47.20;98330.75;7303810;19;129149;-42
2023/03/13 05:30:06;;;;;;;42.83;2.42;;;;;;;24.43;47.05;98302.78;7307041;19;129534;-43
2023/03/13 05:32:32;;;;;;;32.93;2.30;;;;;;;24.61;47.03;98319.94;7304951;19;129752;-40
2023/03/13 05:34:57;;;;;;;27.20;1.77;;;;;;;24.51;46.67;98293.94;7309822;19;129580;-36
2023/03/13 05:37:22;;;;;;;197.60;10.43;;;;;;;24.56;47.08;98306.53;7303757;19;130124;-41
2023/03/13 05:39:48;;;;;;;49.10;2.90;;;;;;;24.32;47.58;98295.44;7307086;19;129147;-41
2023/03/13 05:42:13;;;;;;;184.60;10.18;;;;;;;24.29;46.29;98306.31;7304021;19;129485;-42
2023/03/13 05:44:38;;;;;;;31.17;2.10;;;;;;;24.09;46.55;98279.06;7306985;19;129224;-40
2023/03/13 05:47:04;;;;;;;69.77;3.70;;;;;;;24.03;47.02;98306.03;7306657;19;129418;-44
2023/03/13 05:49:29;;;;;;;47.77;3.00;;;;;;;23.80;47.64;98292.22;7305391;19;129894;-38
2023/03/13 05:51:55;;;;;;;245.40;13.37;;;;;;;23.71;47.87;98295.16;7279876;19;129859;-41
2023/03/13 05:54:20;;;;;;;241.17;12.90;;;;;;;23.48;49.17;98279.56;7270607;19;130365;-39
2023/03/13 05:56:47;;;;;;;254.87;13.30;;;;;;;23.44;49.20;98282.69;7272488;19;130954;-43
2023/03/13 05:59:13;;;;;;;208.10;10.90;;;;;;;23.39;49.79;98287.72;7272463;19;129847;-42
2023/03/13 06:01:38;;;;;;;224.63;11.80;;;;;;;23.37;49.84;98287.88;7274440;19;130537;-42
2023/03/13 06:04:03;;;;;;;211.30;11.33;;;;;;;23.39;49.73;98278.00;7279162;19;130235;-42
2023/03/13 06:06:29;;;;;;;256.50;13.85;;;;;;;23.45;49.14;98282.56;7276600;19;131642;-39
2023/03/13 06:08:54;;;;;;;230.60;12.37;;;;;;;23.54;48.99;98267.50;7277181;19;130412;-42
2023/03/13 06:11:20;;;;;;;311.40;17.23;;;;;;;23.61;49.19;98263.97;7273460;19;129965;-42
2023/03/13 06:13:45;;;;;;;242.30;12.90;;;;;;;23.70;49.43;98277.78;7276051;19;130170;-42
2023/03/13 06:16:10;;;;;;;208.70;11.40;;;;;;;23.83;48.84;98273.47;7274059;19;130807;-42
2023/03/13 06:18:36;;;;;;;208.23;11.48;;;;;;;23.87;48.86;98259.00;7275947;19;130289;-40
2023/03/13 06:21:02;;;;;;;62.90;3.57;;;;;;;24.02;48.35;98270.28;7288313;19;131119;-42
2023/03/13 06:23:28;;;;;;;98.60;5.55;;;;;;;24.12;47.96;98267.34;7312254;19;129086;-42
2023/03/13 06:25:54;;;;;;;112.90;6.20;;;;;;;24.25;48.11;98265.66;7307178;19;129725;-42
2023/03/13 06:28:19;;;;;;;93.97;5.37;;;;;;;24.26;47.71;98248.88;7306784;19;130024;-40
2023/03/13 06:30:45;;;;;;;63.08;3.35;;;;;;;24.34;47.26;98246.16;7306327;19;129937;-43
2023/03/13 06:33:11;;;;;;;81.67;4.13;;;;;;;24.34;47.40;98240.91;7305199;19;129268;-43
2023/03/13 06:35:40;;;;;;;113.53;6.00;;;;;;;24.20;47.52;98212.88;7305710;19;129688;-41
2023/03/13 06:38:05;;;;;;;54.35;3.08;;;;;;;24.24;47.51;98227.28;7302403;19;130968;-45
2023/03/13 06:40:31;;;;;;;44.80;2.60;;;;;;;24.14;47.77;98216.28;7306793;19;129609;-40
2023/03/13 06:42:56;;;;;;;323.87;17.57;;;;;;;24.05;47.84;98214.78;7298282;19;130483;-42
2023/03/13 06:45:21;;;;;;;270.80;15.55;;;;;;;23.90;48.78;98210.56;7265522;19;131219;-43
2023/03/13 06:47:48;;;;;;;226.33;12.23;;;;;;;23.77;48.97;98200.75;7275242;19;131363;-35
2023/03/13 06:50:13;;;;;;;227.20;12.63;;;;;;;23.65;49.47;98196.97;7277987;19;131276;-40
2023/03/13 06:52:39;;;;;;;278.87;14.93;;;;;;;23.46;49.58;98192.34;7273060;19;130216;-41
2023/03/13 06:55:05;;;;;;;251.30;13.60;;;;;;;23.39;49.67;98198.53;7277396;19;130234;-42
2023/03/13 06:57:30;;;;;;;195.70;10.48;;;;;;;23.34;49.99;98193.03;7276826;19;131182;-42
2023/03/13 06:59:55;;;;;;;229.60;12.03;;;;;;;23.32;50.10;98193.19;7276286;19;129961;-41
2023/03/13 07:02:20;;;;;;;245.35;12.82;;;;;;;23.35;49.78;98194.66;7276477;19;133128;-40
2023/03/13 07:04:46;;;;;;;268.37;14.53;;;;;;;23.32;50.06;98169.59;7275782;19;130683;-42
2023/03/13 07:07:11;;;;;;;189.63;10.60;;;;;;;23.53;49.74;98185.38;7276318;19;130770;-42
2023/03/13 07:09:36;;;;;;;206.97;11.23;;;;;;;23.61;49.17;98187.88;7272655;19;130659;-42
2023/03/13 07:12:03;;;;;;;215.30;11.47;;;;;;;23.71;49.10;98191.00;7273531;19;131002;-38
2023/03/13 07:14:28;;;;;;;249.23;13.70;;;;;;;23.88;49.46;98189.72;7275116;19;131275;-41
2023/03/13 07:16:54;;;;;;;184.57;10.03;;;;;;;24.01;48.52;98183.84;7273424;19;130515;-40
2023/03/13 07:19:19;;;;;;;242.85;12.77;;;;;;;23.95;48.44;98156.50;7275676;19;130449;-41
2023/03/13 07:21:45;;;;;;;206.87;10.83;;;;;;;24.13;48.49;98177.88;7274533;19;130630;-39
2023/03/13 07:24:11;;;;;;;222.13;12.10;;;;;;;24.26;48.33;98156.97;7277623;19;130443;-37
2023/03/13 07:26:37;;;;;;;184.57;10.17;;;;;;;24.33;48.28;98154.38;7273920;19;130702;-42
2023/03/13 07:29:02;;;;;;;231.63;12.13;;;;;;;24.38;48.15;98158.06;7275259;19;130022;-42
2023/03/13 07:31:32;;;;;;;243.97;13.20;;;;;;;24.45;47.56;98158.09;7273460;19;130093;-43
2023/03/13 07:33:57;;;;;;;235.02;12.85;;;;;;;24.42;47.91;98161.94;7276017;19;130709;-42
2023/03/13 07:36:22;;;;;;;219.93;11.77;;;;;;;24.35;47.94;98153.19;7273130;19;130047;-44
2023/03/13 07:38:49;;;;;;;282.25;14.98;;;;;;;24.19;48.46;98153.50;7274185;19;131550;-41
2023/03/13 07:41:14;;;;;;;234.70;12.60;;;;;;;24.11;48.52;98143.09;7276338;19;130778;-41
2023/03/13 07:43:40;;;;;;;207.70;11.10;;;;;;;24.00;48.60;98142.81;7274826;19;129586;-38
2023/03/13 07:46:07;;;;;;;190.45;10.65;;;;;;;23.86;49.26;98141.88;7270607;19;130434;-44
2023/03/13 07:48:35;;;;;;;236.85;12.73;;;;;;;23.74;49.32;98138.13;7274503;19;131182;-39
2023/03/13 07:51:01;;;;;;;204.02;10.95;;;;;;;23.64;49.61;98134.19;7274865;19;130892;-40
2023/03/13 07:53:27;;;;;;;256.70;13.52;;;;;;;23.50;49.57;98138.53;7272482;19;130131;-42
2023/03/13 07:55:58;;;;;;;215.05;11.52;;;;;;;23.45;50.44;98133.03;7273720;19;131007;-40
2023/03/13 07:58:26;;;;;;;263.77;13.93;;;;;;;23.43;49.94;98135.03;7275419;19;131103;-43
2023/03/13 08:00:51;;;;;;;221.25;12.30;;;;;;;23.49;50.20;98120.34;7273269;19;130554;-42
2023/03/13 08:03:17;;;;;;;263.00;13.97;;;;;;;23.44;49.97;98113.03;7270066;19;130447;-41
2023/03/13 08:05:42;;;;;;;241.10;13.40;;;;;;;23.70;50.22;98122.97;7270267;19;131072;-42
2023/03/13 08:08:07;;;;;;;240.03;12.67;;;;;;;23.64;49.32;98106.16;7274204;19;130984;-41
2023/03/13 08:10:33;;;;;;;212.55;11.15;;;;;;;23.85;49.37;98121.88;7270225;19;129673;-40
2023/03/13 08:12:59;;;;;;;209.35;11.38;;;;;;;23.95;49.47;98130.22;7271460;19;130508;-42
2023/03/13 08:15:25;;;;;;;239.60;12.90;;;;;;;24.10;48.65;98138.88;7271334;19;131563;-40
2023/03/13 08:17:54;;;;;;;252.73;13.30;;;;;;;24.00;48.38;98120.00;7268494;19;129698;-40
2023/03/13 08:20:20;;;;;;;198.80;11.07;;;;;;;24.23;48.09;98131.09;7272725;19;130419;-43
2023/03/13 08:22:45;;;;;;;105.10;5.50;;;;;;;24.29;47.89;98138.22;7287398;19;130915;-41
2023/03/13 08:25:14;;;;;;;127.40;6.97;;;;;;;24.42;47.67;98137.47;7303768;19;129592;-39
2023/03/13 08:27:39;;;;;;;92.40;4.57;;;;;;;24.51;47.98;98143.38;7305618;19;129460;-42
2023/03/13 08:30:05;;;;;;;85.50;4.67;;;;;;;24.48;47.89;98144.56;7304505;19;129951;-40
2023/03/13 08:32:35;;;;;;;68.80;3.75;;;;;;;24.42;48.05;98148.81;7305083;19;129253;-42
2023/03/13 08:35:00;;;;;;;88.07;4.50;;;;;;;24.39;48.10;98143.91;7304922;19;129819;-42
2023/03/13 08:37:26;;;;;;;86.47;4.43;;;;;;;24.29;48.46;98148.72;7304316;19;129224;-41
2023/03/13 08:39:53;;;;;;;41.20;2.30;;;;;;;24.17;48.65;98145.00;7311126;19;129528;-41
2023/03/13 08:42:18;;;;;;;61.38;3.55;;;;;;;24.03;48.56;98143.25;7306212;19;130972;-44
2023/03/13 08:44:44;;;;;;;38.13;2.17;;;;;;;23.95;49.07;98140.75;7309483;19;129310;-43
2023/03/13 08:47:09;;;;;;;78.90;4.33;;;;;;;23.76;49.12;98151.91;7306872;19;129715;-41
2023/03/13 08:49:35;;;;;;;30.45;1.95;;;;;;;23.70;49.79;98142.13;7310159;19;130178;-43
2023/03/13 08:52:00;;;;;;;43.65;2.53;;;;;;;23.52;49.70;98139.13;7306461;19;129868;-42
2023/03/13 08:54:26;;;;;;;59.10;3.17;;;;;;;23.46;50.57;98118.91;7309939;19;129594;-42
2023/03/13 08:56:51;;;;;;;107.60;5.80;;;;;;;23.44;50.23;98120.91;7306919;19;130493;-41
2023/03/13 08:59:16;;;;;;;53.35;2.97;;;;;;;23.56;50.72;98114.16;7308520;19;129070;-43
2023/03/13 09:01:42;;;;;;;40.63;2.33;;;;;;;23.46;49.99;98099.72;7309453;19;129116;-43
2023/03/13 09:04:07;;;;;;;82.07;4.43;;;;;;;23.65;50.12;98123.50;7304048;19;131120;-44
2023/03/13 09:06:34;;;;;;;51.70;2.87;;;;;;;23.78;50.00;98110.53;7307324;19;129505;-42
2023/03/13 09:09:00;;;;;;;34.88;2.05;;;;;;;23.84;49.20;98096.63;7307039;19;129086;-40
2023/03/13 09:11:26;;;;;;;59.27;3.53;;;;;;;24.00;49.47;98099.00;7309195;19;129407;-40
2023/03/13 09:13:53;;;;;;;63.63;3.43;;;;;;;24.05;49.17;98109.75;7307858;19;130209;-41
2023/03/13 09:16:24;;;;;;;65.18;3.63;;;;;;;24.20;48.41;98114.88;7307307;19;129274;-40
2023/03/13 09:18:50;;;;;;;43.40;2.30;;;;;;;24.30;48.78;98105.69;7306811;19;129676;-42
2023/03/13 09:21:19;;;;;;;59.65;3.22;;;;;;;24.43;48.13;98103.13;7306040;19;130710;-41
2023/03/13 09:23:44;;;;;;;48.05;2.55;;;;;;;24.49;47.95;98107.59;7308762;19;129910;-40
2023/03/13 09:26:10;;;;;;;97.83;5.13;;;;;;;24.51;47.68;98103.97;7305478;19;129808;-39
2023/03/13 09:28:36;;;;;;;78.68;4.63;;;;;;;24.48;47.78;98110.41;7303333;19;129293;-44
2023/03/13 09:31:09;;;;;;;53.77;2.90;;;;;;;24.39;48.01;98109.75;7301093;19;129590;-45
2023/03/13 09:33:36;;;;;;;89.75;4.82;;;;;;;24.28;48.29;98112.13;7306023;19;129340;-42
2023/03/13 09:36:02;;;;;;;41.97;2.35;;;;;;;24.21;48.31;98119.94;7314659;19;130089;-39
2023/03/13 09:38:28;;;;;;;47.93;2.60;;;;;;;24.10;49.08;98127.53;7312150;19;129074;-40
2023/03/13 09:40:54;;;;;;;60.47;3.17;;;;;;;23.94;49.18;98112.88;7314882;19;130147;-44
2023/03/13 09:43:46;;;;;;;58.80;3.25;;;;;;;23.80;48.78;98108.50;7311684;19;129036;-41
2023/03/13 09:46:53;;;;;;;36.30;2.30;;;;;;;23.64;49.45;98111.41;7311397;19;130387;-44
2023/03/13 09:49:37;;;;;;;41.17;2.33;;;;;;;23.51;49.73;98097.34;7312193;19;129925;-42
2023/03/13 09:52:15;;;;;;;41.42;2.42;;;;;;;23.53;50.37;98087.50;7313890;19;129546;-41
2023/03/13 09:54:57;;;;;;;46.25;2.80;;;;;;;23.48;50.16;98084.63;7315376;19;129118;-42
2023/03/13 09:57:30;;;;;;;65.10;3.33;;;;;;;23.60;49.91;98083.13;7311172;19;129981;-39
2023/03/13 10:00:13;;;;;;;248.80;13.27;;;;;;;23.76;49.44;98075.78;7278694;19;130762;-43
2023/03/13 10:02:44;;;;;;;217.20;11.23;;;;;;;23.84;49.52;98070.41;7276904;19;130668;-40
2023/03/13 10:05:19;;;;;;;272.73;15.15;;;;;;;23.92;49.07;98046.63;7277283;19;130360;-42
2023/03/13 10:07:44;;;;;;;214.98;11.32;;;;;;;24.07;48.27;98049.16;7279344;19;130954;-41
2023/03/13 10:10:13;;;;;;;237.10;12.47;;;;;;;24.32;48.30;98066.91;7278359;19;129918;-41
2023/03/13 10:12:46;;;;;;;78.45;4.20;;;;;;;24.44;47.86;98067.16;7289187;19;129547;-39
2023/03/13 10:15:47;;;;;;;129.43;7.53;;;;;;;24.50;47.78;98055.88;7313732;19;129383;-43
2023/03/13 10:18:21;;;;;;;42.35;2.22;;;;;;;24.46;48.32;98065.94;7309967;19;129503;-42
2023/03/13 10:20:50;;;;;;;74.63;4.00;;;;;;;24.43;47.60;98049.75;7313252;19;129756;-43
2023/03/13 10:23:21;;;;;;;49.38;2.38;;;;;;;24.22;48.62;98044.63;7312752;19;129616;-38
2023/03/13 10:25:46;;;;;;;36.33;2.08;;;;;;;24.18;48.94;98057.31;7313813;19;129935;-44
2023/03/13 10:28:15;;;;;;;35.40;1.93;;;;;;;24.05;48.64;98052.00;7312540;19;129757;-43
2023/03/13 10:30:46;;;;;;;45.05;2.40;;;;;;;23.94;48.80;98044.63;7315103;19;129127;-42
2023/03/13 10:33:12;;;;;;;65.43;3.42;;;;;;;23.83;49.89;98031.22;7311234;19;129258;-42
2023/03/13 10:35:40;;;;;;;39.03;2.30;;;;;;;23.69;49.82;98045.22;7312774;19;129336;-42
2023/03/13 10:38:10;;;;;;;35.45;1.92;;;;;;;23.54;50.56;98034.84;7311529;19;129647;-44
2023/03/13 10:40:37;;;;;;;38.20;2.15;;;;;;;23.47;50.83;98035.78;7313481;19;129747;-39
2023/03/13 10:43:13;;;;;;;55.73;2.97;;;;;;;23.38;50.67;98036.91;7311441;19;129198;-41
2023/03/13 10:45:39;;;;;;;56.80;3.15;;;;;;;23.41;50.50;98024.22;7313397;19;129027;-43
2023/03/13 10:48:28;;;;;;;39.63;2.20;;;;;;;23.50;50.58;98041.47;7312624;19;129588;-40
2023/03/13 10:50:57;;;;;;;11.85;0.90;;;;;;;23.51;50.31;98024.72;7313449;19;129154;-42
2023/03/13 10:53:28;;;;;;;55.70;3.00;;;;;;;23.77;49.96;98032.78;7312952;19;128943;-41
2023/03/13 10:56:13;;;;;;;46.88;2.38;;;;;;;23.95;49.57;98042.78;7312610;19;129091;-44
2023/03/13 10:58:46;;;;;;;60.88;3.17;;;;;;;24.10;48.87;98044.34;7308232;19;129531;-37
2023/03/13 11:01:25;;;;;;;55.40;2.97;;;;;;;24.28;48.71;98052.53;7311021;19;129431;-39
2023/03/13 11:03:52;;;;;;;46.95;2.60;;;;;;;24.38;48.52;98054.78;7314766;19;128984;-39
2023/03/13 11:06:30;;;;;;;64.18;3.45;;;;;;;24.39;48.53;98056.44;7312888;19;130033;-42
2023/03/13 11:09:14;;;;;;;38.42;2.05;;;;;;;24.31;48.54;98062.63;7312446;19;129340;-40
2023/03/13 11:11:47;;;;;;;30.95;1.83;;;;;;;24.20;48.75;98071.06;7312022;19;129515;-40
2023/03/13 11:14:15;;;;;;;51.25;2.78;;;;;;;24.13;49.02;98064.16;7312847;19;129788;-46
2023/03/13 11:17:11;;;;;;;53.72;2.92;;;;;;;23.98;49.54;98069.50;7312333;19;130160;-42